Time;durP1;ratioP1;P1;durP2;ratioP2;P2;SDS_P1;SDS_P2;PMS_P1;PMS_P2;Temp;Humidity;BMP_temperature;BMP_pressure;BME280_temperature;BME280_humidity;BME280_pressure;Samples;Min_cycle;Max_cycle;Signal;HPM_P1;HPM_P2
2024/04/20 00:00:52;;;;;;;0.68;0.68;;;;;;;20.21;47.06;99635.40;2346730;75;50269;-78
2024/04/20 00:03:54;;;;;;;1.20;0.93;;;;;;;20.22;47.02;99632.22;2331527;75;51467;-78
2024/04/20 00:06:56;;;;;;;1.35;0.80;;;;;;;20.21;46.99;99635.92;2302423;75;51792;-78
2024/04/20 00:09:58;;;;;;;1.32;0.80;;;;;;;20.21;47.01;99643.45;2338445;75;50374;-78
2024/04/20 00:13:00;;;;;;;1.20;0.90;;;;;;;20.21;46.99;99645.33;2323548;75;50402;-79
2024/04/20 00:16:04;;;;;;;1.52;0.90;;;;;;;20.19;46.97;99645.56;2290959;75;49378;-78
2024/04/20 00:19:06;;;;;;;1.22;0.90;;;;;;;20.21;46.98;99654.72;2327731;75;51639;-78
2024/04/20 00:22:08;;;;;;;1.77;1.00;;;;;;;20.18;47.00;99655.98;2320279;75;51456;-77
2024/04/20 00:25:10;;;;;;;0.65;0.60;;;;;;;20.19;46.99;99658.98;2328180;75;51576;-78
2024/04/20 00:28:13;;;;;;;1.27;0.85;;;;;;;20.19;47.01;99664.86;2330850;75;51626;-78
2024/04/20 00:31:15;;;;;;;1.52;0.80;;;;;;;20.17;47.00;99667.78;2331041;75;52903;-77
2024/04/20 00:34:17;;;;;;;1.07;0.90;;;;;;;20.18;47.00;99676.66;2331183;75;52102;-78
2024/04/20 00:37:19;;;;;;;1.20;0.80;;;;;;;;;;2327671;75;51856;-78
2024/04/20 00:40:21;;;;;;;1.60;0.88;;;;;;;20.18;46.94;99686.05;2293525;75;51717;-77
2024/04/20 00:43:23;;;;;;;1.50;1.00;;;;;;;20.17;46.94;99694.64;2339088;75;51513;-77
2024/04/20 00:46:26;;;;;;;2.00;1.00;;;;;;;20.16;46.96;99698.34;2316250;75;50709;-77
2024/04/20 00:49:29;;;;;;;0.85;0.80;;;;;;;20.15;46.93;99703.42;2272176;75;52424;-78
2024/04/20 00:52:32;;;;;;;0.70;0.60;;;;;;;20.16;46.86;99703.72;2335441;75;51591;-77
2024/04/20 00:55:34;;;;;;;1.07;0.90;;;;;;;20.16;46.88;99707.75;2329087;75;51596;-77
2024/04/20 00:58:36;;;;;;;0.70;0.70;;;;;;;20.16;46.87;99711.77;2317401;75;51521;-77
2024/04/20 01:01:38;;;;;;;1.57;0.98;;;;;;;;;;2335781;75;50748;-77
2024/04/20 01:04:40;;;;;;;1.17;0.85;;;;;;;20.17;46.87;99718.81;2321848;75;51585;-76
2024/04/20 01:07:42;;;;;;;1.92;0.95;;;;;;;20.19;46.82;99725.30;2342348;75;51275;-77
2024/04/20 01:10:44;;;;;;;1.90;0.88;;;;;;;20.18;46.83;99728.50;2337675;75;50305;-77
2024/04/20 01:13:56;;;;;;;2.98;1.07;;;;;;;20.18;46.85;99730.38;2306378;75;49596;-77
2024/04/20 01:16:59;;;;;;;0.90;0.62;;;;;;;20.18;46.87;99745.96;2301909;75;50381;-76
2024/04/20 01:20:01;;;;;;;0.80;0.80;;;;;;;20.16;46.88;99739.98;2328888;75;50623;-78
2024/04/20 01:23:03;;;;;;;2.35;0.75;;;;;;;20.15;46.89;99745.05;2296405;75;51052;-77
2024/04/20 01:26:05;;;;;;;1.00;0.85;;;;;;;20.16;46.91;99756.09;2315291;73;50718;-78
2024/04/20 01:29:07;;;;;;;2.83;0.95;;;;;;;;;;2321848;75;50628;-77
2024/04/20 01:32:09;;;;;;;1.47;0.90;;;;;;;20.15;46.87;99755.80;2300077;75;50974;-77
2024/04/20 01:35:12;;;;;;;0.98;0.80;;;;;;;20.14;46.89;99767.59;2315261;75;51588;-78
2024/04/20 01:38:14;;;;;;;1.02;0.82;;;;;;;20.14;46.90;99760.88;2340365;75;52367;-77
2024/04/20 01:41:16;;;;;;;0.90;0.72;;;;;;;20.15;46.85;99773.78;2291874;75;50190;-77
2024/04/20 01:44:19;;;;;;;1.35;0.80;;;;;;;20.15;46.84;99781.84;2340897;75;50741;-78
2024/04/20 01:47:28;;;;;;;1.30;0.98;;;;;;;20.14;46.79;99786.39;2294538;75;50066;-77
2024/04/20 01:50:25;;;;;;;1.37;0.90;;;;;;;20.15;46.78;99789.90;2330787;75;22924;-77
2024/04/20 01:53:27;;;;;;;1.27;0.90;;;;;;;20.15;46.80;99797.43;2335591;75;50577;-77
2024/04/20 01:56:29;;;;;;;0.98;0.70;;;;;;;20.15;46.78;99794.75;2300842;75;51210;-77
2024/04/20 01:59:31;;;;;;;1.12;0.70;;;;;;;20.15;46.78;99800.64;2323505;75;51502;-77
2024/04/20 02:02:33;;;;;;;0.70;0.60;;;;;;;20.13;46.82;99806.73;2332110;75;50388;-77
2024/04/20 02:05:36;;;;;;;3.22;0.80;;;;;;;20.14;46.82;99811.06;2292694;75;49504;-78
2024/04/20 02:08:39;;;;;;;0.95;0.80;;;;;;;20.15;46.82;99816.23;2311366;75;50741;-78
2024/04/20 02:11:41;;;;;;;1.02;0.60;;;;;;;20.14;46.80;99817.28;2297916;75;52527;-78
2024/04/20 02:14:43;;;;;;;0.85;0.70;;;;;;;20.14;46.79;99838.77;2299542;75;50393;-77
2024/04/20 02:17:46;;;;;;;0.90;0.70;;;;;;;20.14;46.79;99830.71;2325975;74;51563;-76
2024/04/20 02:20:48;;;;;;;0.50;0.50;;;;;;;20.13;46.80;99833.59;2310878;75;50907;-77
2024/04/20 02:23:50;;;;;;;0.80;0.70;;;;;;;20.13;46.76;99843.00;2334332;75;51522;-78
2024/04/20 02:26:52;;;;;;;0.78;0.65;;;;;;;20.12;46.79;99854.27;2335634;75;50630;-77
2024/04/20 02:29:54;;;;;;;1.22;0.80;;;;;;;20.12;46.77;99852.92;2334692;75;49967;-77
2024/04/20 02:32:57;;;;;;;0.98;0.78;;;;;;;20.12;46.75;99860.98;2331669;75;50076;-77
2024/04/20 02:35:59;;;;;;;0.68;0.68;;;;;;;20.12;46.69;99868.22;2288151;75;49544;-76
2024/04/20 02:39:01;;;;;;;0.80;0.68;;;;;;;20.12;46.66;99867.70;2328097;75;50764;-77
2024/04/20 02:42:05;;;;;;;1.12;0.78;;;;;;;20.11;46.70;99876.77;2337995;75;51431;-78
2024/04/20 02:45:11;;;;;;;1.10;0.60;;;;;;;20.12;46.62;99882.47;2303027;75;51271;-77
2024/04/20 02:48:12;;;;;;;;;;;;;;;20.13;46.65;99890.82;2334111;75;50381;-78
2024/04/20 02:51:14;;;;;;;0.93;0.60;;;;;;;20.11;46.70;99902.28;2339452;75;50382;-77
2024/04/20 02:54:17;;;;;;;0.60;0.60;;;;;;;20.12;46.71;99912.53;2302663;75;49570;-77
2024/04/20 02:57:19;;;;;;;0.70;0.60;;;;;;;20.12;46.70;99918.73;2345806;75;50658;-76
2024/04/20 03:00:21;;;;;;;0.72;0.53;;;;;;;20.12;46.70;99931.34;2311039;75;51533;-78
2024/04/20 03:03:24;;;;;;;0.78;0.60;;;;;;;20.12;46.74;99935.36;2323069;75;50856;-79
2024/04/20 03:06:26;;;;;;;1.57;0.90;;;;;;;20.11;46.73;99939.88;2334889;75;50352;-78
2024/04/20 03:09:28;;;;;;;0.78;0.78;;;;;;;20.10;46.73;99944.97;2327139;75;51509;-78
2024/04/20 03:12:30;;;;;;;0.72;0.65;;;;;;;20.10;46.72;99953.55;2324966;75;50685;-78
2024/04/20 03:15:33;;;;;;;0.93;0.60;;;;;;;20.10;46.73;99961.08;2328040;75;50725;-79
2024/04/20 03:18:35;;;;;;;0.60;0.50;;;;;;;20.09;46.73;99968.84;2323355;75;50741;-78
2024/04/20 03:21:38;;;;;;;0.65;0.57;;;;;;;20.10;46.70;99979.88;2324937;75;50449;-78
2024/04/20 03:24:40;;;;;;;0.72;0.57;;;;;;;20.09;46.68;99979.58;2338086;75;52361;-78
2024/04/20 03:27:42;;;;;;;0.60;0.50;;;;;;;20.10;46.67;99986.59;2336784;75;51435;-77
2024/04/20 03:30:44;;;;;;;0.78;0.57;;;;;;;20.10;46.66;99996.52;2321860;75;51518;-77
2024/04/20 03:33:46;;;;;;;0.85;0.70;;;;;;;20.10;46.65;99998.67;2261642;75;52387;-77
2024/04/20 03:36:49;;;;;;;0.70;0.53;;;;;;;20.10;46.64;100004.58;2331790;75;51550;-77
2024/04/20 03:39:51;;;;;;;0.82;0.80;;;;;;;20.09;46.59;100008.28;2330426;75;50298;-77
2024/04/20 03:42:53;;;;;;;0.50;0.50;;;;;;;20.08;46.57;100018.20;2306457;75;49593;-77
2024/04/20 03:45:55;;;;;;;0.75;0.50;;;;;;;20.10;46.58;100020.69;2333714;75;50665;-77
2024/04/20 03:48:57;;;;;;;0.72;0.60;;;;;;;20.10;46.55;100028.22;2319706;75;51553;-77
2024/04/20 03:52:00;;;;;;;1.02;0.70;;;;;;;20.09;46.56;100023.90;2299178;75;50977;-77
2024/04/20 03:55:02;;;;;;;0.72;0.53;;;;;;;20.08;46.53;100039.69;2331584;75;51541;-77
2024/04/20 03:58:04;;;;;;;0.62;0.60;;;;;;;20.09;46.58;100052.59;2318390;75;50348;-78
2024/04/20 04:01:07;;;;;;;2.20;0.65;;;;;;;20.09;46.59;100061.50;2276777;75;51531;-78
2024/04/20 04:04:09;;;;;;;0.65;0.50;;;;;;;20.08;46.59;100073.26;2346198;75;50151;-78
2024/04/20 04:07:11;;;;;;;0.95;0.57;;;;;;;20.07;46.62;100075.64;2331904;75;50009;-78
2024/04/20 04:10:14;;;;;;;0.55;0.50;;;;;;;20.07;46.56;100079.67;2328865;75;50245;-78
2024/04/20 04:13:17;;;;;;;0.45;0.45;;;;;;;20.08;46.57;100088.03;2313526;75;50093;-78
2024/04/20 04:16:19;;;;;;;0.70;0.57;;;;;;;20.08;46.51;100095.27;2282562;75;49576;-77
2024/04/20 04:19:21;;;;;;;0.70;0.50;;;;;;;20.07;46.48;100100.34;2332020;75;50698;-77
2024/04/20 04:22:23;;;;;;;0.50;0.50;;;;;;;20.10;46.40;100114.17;2327747;75;51449;-78
2024/04/20 04:25:25;;;;;;;0.30;0.30;;;;;;;20.09;46.41;100117.05;2311511;75;50103;-77
2024/04/20 04:28:27;;;;;;;0.42;0.42;;;;;;;20.09;46.37;100133.16;2310699;75;51446;-77
2024/04/20 04:31:30;;;;;;;0.65;0.55;;;;;;;20.08;46.43;100136.89;2340919;75;51505;-76
2024/04/20 04:34:32;;;;;;;0.78;0.50;;;;;;;20.08;46.42;100155.17;2329287;75;50373;-76
2024/04/20 04:37:34;;;;;;;0.55;0.50;;;;;;;20.10;46.35;100158.48;2334909;75;50412;-77
2024/04/20 04:40:36;;;;;;;1.05;0.70;;;;;;;20.09;46.38;100167.59;2297052;75;50095;-76
2024/04/20 04:43:39;;;;;;;0.47;0.40;;;;;;;20.07;46.40;100175.02;2304830;75;51512;-77
2024/04/20 04:46:41;;;;;;;0.60;0.60;;;;;;;20.07;46.46;100192.47;2328168;75;50089;-78
2024/04/20 04:49:43;;;;;;;0.40;0.40;;;;;;;20.07;46.46;100194.34;2317268;75;50262;-78
2024/04/20 04:52:46;;;;;;;0.60;0.50;;;;;;;20.07;46.42;100207.25;2325467;75;50332;-78
2024/04/20 04:55:48;;;;;;;1.12;0.57;;;;;;;20.06;46.40;100214.97;2340366;75;50715;-77
2024/04/20 04:58:50;;;;;;;0.82;0.57;;;;;;;20.07;46.39;100222.02;2332196;75;50344;-77
2024/04/20 05:01:53;;;;;;;0.60;0.60;;;;;;;20.06;46.39;100223.03;2326192;75;50241;-78
2024/04/20 05:04:55;;;;;;;0.40;0.40;;;;;;;20.06;46.38;100229.75;2296361;75;51030;-76
2024/04/20 05:07:57;;;;;;;0.93;0.55;;;;;;;20.07;46.33;100244.03;2339242;75;50177;-78
2024/04/20 05:10:59;;;;;;;0.60;0.50;;;;;;;20.05;46.38;100249.59;2326760;75;51615;-77
2024/04/20 05:14:01;;;;;;;1.07;0.60;;;;;;;20.05;46.36;100262.20;2306547;75;51182;-77
2024/04/20 05:17:04;;;;;;;0.60;0.47;;;;;;;20.05;46.29;100269.73;2336674;75;51498;-77
2024/04/20 05:20:07;;;;;;;0.65;0.50;;;;;;;20.06;46.23;100279.43;2318560;75;50439;-78
2024/04/20 05:23:11;;;;;;;0.30;0.30;;;;;;;20.06;46.21;100290.17;2283749;75;50758;-77
2024/04/20 05:26:13;;;;;;;0.50;0.45;;;;;;;20.05;46.22;100289.05;2326908;75;51478;-78
2024/04/20 05:29:15;;;;;;;0.50;0.47;;;;;;;20.06;46.17;100301.44;2295337;75;51123;-78
2024/04/20 05:32:18;;;;;;;0.57;0.50;;;;;;;20.06;46.22;100310.32;2321818;75;50477;-78
2024/04/20 05:35:20;;;;;;;0.40;0.40;;;;;;;20.05;46.22;100308.67;2323441;75;50662;-77
2024/04/20 05:38:22;;;;;;;0.40;0.40;;;;;;;20.04;46.20;100316.43;2286333;75;51531;-78
2024/04/20 05:41:24;;;;;;;0.95;0.55;;;;;;;20.05;46.21;100332.02;2343768;75;52393;-77
2024/04/20 05:44:27;;;;;;;0.65;0.50;;;;;;;20.04;46.22;100340.61;2324352;74;52153;-77
2024/04/20 05:47:29;;;;;;;0.40;0.40;;;;;;;20.04;46.19;100344.63;2331703;75;50282;-77
2024/04/20 05:50:31;;;;;;;0.42;0.42;;;;;;;20.04;46.21;100357.20;2326369;75;50712;-77
2024/04/20 05:53:34;;;;;;;0.72;0.40;;;;;;;20.04;46.15;100359.89;2303524;75;50940;-78
2024/04/20 05:56:36;;;;;;;0.50;0.50;;;;;;;20.05;46.06;100369.63;2330954;75;51519;-77
2024/04/20 05:59:38;;;;;;;0.40;0.40;;;;;;;20.04;46.01;100375.52;2319495;75;51446;-78
2024/04/20 06:02:40;;;;;;;0.40;0.40;;;;;;;20.06;46.06;100390.07;2333268;75;49735;-77
2024/04/20 06:05:45;;;;;;;0.65;0.42;;;;;;;20.06;46.02;100388.20;2336412;75;50362;-77
2024/04/20 06:08:46;;;;;;;0.70;0.40;;;;;;;20.06;46.00;100398.95;2328281;75;22878;-77
2024/04/20 06:11:48;;;;;;;0.75;0.50;;;;;;;20.07;46.02;100405.17;2334406;75;52472;-78
2024/04/20 06:14:51;;;;;;;0.33;0.33;;;;;;;20.05;46.04;100418.80;2291095;75;52125;-78
2024/04/20 06:17:53;;;;;;;0.45;0.45;;;;;;;20.05;46.05;100416.11;2298252;75;51348;-78
2024/04/20 06:20:56;;;;;;;0.65;0.40;;;;;;;20.04;46.12;100431.92;2337021;75;51200;-78
2024/04/20 06:23:58;;;;;;;0.60;0.40;;;;;;;20.05;46.09;100439.45;2293579;75;51004;-78
2024/04/20 06:27:00;;;;;;;0.70;0.40;;;;;;;20.04;46.10;100431.06;2289704;75;52592;-77
2024/04/20 06:30:03;;;;;;;0.50;0.40;;;;;;;20.04;46.07;100448.03;2334506;75;51502;-78
2024/04/20 06:33:05;;;;;;;0.40;0.40;;;;;;;20.03;46.09;100450.39;2331775;75;50488;-78
2024/04/20 06:36:08;;;;;;;0.53;0.53;;;;;;;20.04;46.10;100456.58;2304335;75;50381;-78
2024/04/20 06:39:10;;;;;;;0.50;0.50;;;;;;;20.03;46.07;100463.81;2322000;75;51545;-79
2024/04/20 06:42:12;;;;;;;0.78;0.60;;;;;;;20.03;46.07;100478.59;2321127;75;51006;-77
2024/04/20 06:45:14;;;;;;;0.53;0.45;;;;;;;20.03;46.10;100474.55;2327365;75;51390;-78
2024/04/20 06:48:17;;;;;;;0.65;0.65;;;;;;;20.05;46.03;100483.77;2340310;75;51518;-79
2024/04/20 06:51:19;;;;;;;0.80;0.40;;;;;;;20.05;45.99;100492.66;2292549;75;50830;-80
2024/04/20 06:54:21;;;;;;;0.50;0.50;;;;;;;20.04;45.97;100504.44;2331624;75;50286;-77
2024/04/20 06:57:23;;;;;;;0.55;0.47;;;;;;;20.06;45.94;100505.56;2336362;75;50386;-78
2024/04/20 07:00:25;;;;;;;0.42;0.42;;;;;;;20.04;45.96;100503.09;2326167;75;50406;-78
2024/04/20 07:03:28;;;;;;;0.50;0.50;;;;;;;20.07;45.92;100514.78;2316254;75;50399;-79
2024/04/20 07:06:30;;;;;;;0.40;0.40;;;;;;;20.06;45.93;100518.48;2288322;75;51202;-78
2024/04/20 07:09:32;;;;;;;0.57;0.40;;;;;;;20.07;45.95;100528.73;2337493;75;50250;-78
2024/04/20 07:12:34;;;;;;;0.82;0.50;;;;;;;20.06;45.99;100535.94;2323465;75;50648;-78
2024/04/20 07:15:36;;;;;;;0.53;0.50;;;;;;;20.06;45.97;100545.34;2288966;75;51011;-78
2024/04/20 07:18:39;;;;;;;0.80;0.62;;;;;;;20.06;46.02;100545.86;2336786;75;50713;-77
2024/04/20 07:21:41;;;;;;;0.70;0.53;;;;;;;20.07;45.99;100555.08;2330806;75;51535;-77
2024/04/20 07:24:43;;;;;;;1.42;0.50;;;;;;;20.07;46.00;100555.08;2350107;75;50733;-77
2024/04/20 07:27:47;;;;;;;0.70;0.60;;;;;;;20.08;45.98;100560.75;2335045;73;51502;-77
2024/04/20 07:30:49;;;;;;;0.45;0.45;;;;;;;20.09;45.93;100563.77;2284356;75;51040;-77
2024/04/20 07:33:52;;;;;;;0.50;0.50;;;;;;;20.12;45.85;100571.95;2345365;75;51510;-77
2024/04/20 07:36:54;;;;;;;0.53;0.50;;;;;;;20.13;45.87;100583.00;2335420;75;51578;-77
2024/04/20 07:39:57;;;;;;;0.50;0.50;;;;;;;20.14;45.86;100585.51;2303140;75;50135;-78
2024/04/20 07:43:00;;;;;;;0.65;0.50;;;;;;;20.17;45.91;100594.52;2311352;75;51545;-78
2024/04/20 07:46:02;;;;;;;0.72;0.50;;;;;;;20.15;45.94;100591.19;2295205;75;50067;-77
2024/04/20 07:49:04;;;;;;;0.40;0.40;;;;;;;20.15;45.98;100605.97;2331975;75;52694;-77
2024/04/20 07:52:06;;;;;;;0.72;0.60;;;;;;;20.15;46.02;100611.34;2338221;75;51545;-77
2024/04/20 07:55:09;;;;;;;0.75;0.53;;;;;;;20.16;46.03;100622.39;2302031;75;52640;-77
2024/04/20 07:58:11;;;;;;;0.53;0.47;;;;;;;20.16;46.04;100630.97;2338537;75;50358;-77
2024/04/20 08:01:13;;;;;;;0.40;0.40;;;;;;;20.15;46.10;100636.86;2300753;75;51294;-77
2024/04/20 08:04:15;;;;;;;0.70;0.50;;;;;;;20.14;46.11;100632.52;2302783;75;50030;-77
2024/04/20 08:07:17;;;;;;;0.82;0.50;;;;;;;20.13;46.12;100641.59;2314621;75;51517;-77
2024/04/20 08:10:20;;;;;;;0.95;0.60;;;;;;;20.13;46.13;100656.36;2307583;75;50724;-77
2024/04/20 08:13:22;;;;;;;1.12;0.62;;;;;;;20.13;46.12;100662.25;2336550;75;51487;-77
2024/04/20 08:16:24;;;;;;;0.55;0.50;;;;;;;20.11;46.18;100662.44;2316501;75;51518;-77
2024/04/20 08:19:26;;;;;;;0.45;0.42;;;;;;;20.12;46.13;100672.17;2306573;75;50976;-78
2024/04/20 08:22:29;;;;;;;0.50;0.50;;;;;;;20.11;46.14;100683.92;2319508;75;50790;-78
2024/04/20 08:25:31;;;;;;;0.60;0.60;;;;;;;20.11;46.13;100690.64;2317344;74;50708;-77
2024/04/20 08:28:33;;;;;;;0.42;0.42;;;;;;;20.12;46.09;100696.35;2295040;75;51478;-78
2024/04/20 08:31:35;;;;;;;0.57;0.57;;;;;;;20.14;46.00;100705.54;2330482;75;50366;-77
2024/04/20 08:34:37;;;;;;;0.60;0.60;;;;;;;20.13;45.99;100709.27;2334337;75;50158;-77
2024/04/20 08:37:40;;;;;;;0.78;0.70;;;;;;;20.13;45.97;100714.64;2325118;75;51658;-78
2024/04/20 08:40:42;;;;;;;0.50;0.50;;;;;;;20.12;45.97;100723.22;2352613;75;51610;-78
2024/04/20 08:43:44;;;;;;;0.85;0.57;;;;;;;20.13;45.93;100722.70;2309616;75;51085;-77
2024/04/20 08:46:52;;;;;;;0.80;0.60;;;;;;;20.16;45.95;100727.16;2309127;75;50082;-79
2024/04/20 08:49:51;;;;;;;0.50;0.50;;;;;;;20.18;45.93;100732.36;2340964;75;23113;-78
2024/04/20 08:52:53;;;;;;;0.50;0.50;;;;;;;;;;2288002;75;49555;-77
2024/04/20 08:55:55;;;;;;;0.88;0.47;;;;;;;20.18;45.77;100738.55;2334200;75;50224;-77
2024/04/20 08:58:57;;;;;;;0.50;0.50;;;;;;;20.21;45.72;100746.23;2294756;75;50045;-78
2024/04/20 09:01:59;;;;;;;0.60;0.60;;;;;;;20.22;45.70;100744.39;2302681;75;50922;-78
2024/04/20 09:05:02;;;;;;;0.60;0.60;;;;;;;20.20;45.66;100759.87;2334990;75;50747;-78
2024/04/20 09:08:05;;;;;;;0.60;0.60;;;;;;;20.20;45.83;100761.22;2334467;75;51595;-77
2024/04/20 09:11:07;;;;;;;0.60;0.57;;;;;;;20.21;45.80;100774.95;2348020;75;52298;-77
2024/04/20 09:14:09;;;;;;;1.15;0.60;;;;;;;20.21;45.81;100783.84;2338839;75;51598;-77
2024/04/20 09:17:11;;;;;;;0.98;0.70;;;;;;;20.20;45.82;100799.66;2290121;75;49430;-77
2024/04/20 09:20:14;;;;;;;0.70;0.57;;;;;;;20.19;45.83;100796.66;2337889;75;50693;-77
2024/04/20 09:23:16;;;;;;;0.68;0.50;;;;;;;20.16;45.89;100795.67;2329804;75;51446;-78
2024/04/20 09:26:23;;;;;;;0.75;0.53;;;;;;;20.19;45.84;100797.14;2292076;75;50107;-78
2024/04/20 09:29:23;;;;;;;0.60;0.60;;;;;;;20.17;45.87;100802.73;2291950;75;22482;-78
2024/04/20 09:32:27;;;;;;;1.00;0.65;;;;;;;;;;2333283;75;50215;-78
2024/04/20 09:35:28;;;;;;;0.88;0.50;;;;;;;20.18;45.84;100812.95;2331559;75;21947;-77
2024/04/20 09:38:30;;;;;;;1.80;0.70;;;;;;;20.16;45.84;100810.45;2308381;75;50386;-77
2024/04/20 09:41:32;;;;;;;0.60;0.60;;;;;;;20.18;45.85;100812.44;2336553;75;50433;-78
2024/04/20 09:44:35;;;;;;;0.60;0.60;;;;;;;20.16;45.83;100817.16;2329322;75;50670;-77
2024/04/20 09:47:37;;;;;;;1.17;0.80;;;;;;;20.18;45.84;100823.70;2308618;75;51568;-78
2024/04/20 09:50:41;;;;;;;0.93;0.70;;;;;;;20.18;45.83;100821.02;2321683;75;50381;-77
2024/04/20 09:53:45;;;;;;;0.68;0.68;;;;;;;20.16;45.83;100823.87;2323363;75;50254;-78
2024/04/20 09:56:47;;;;;;;0.85;0.60;;;;;;;20.18;45.84;100827.22;2348270;75;50751;-78
2024/04/20 09:59:50;;;;;;;0.70;0.60;;;;;;;20.17;45.84;100825.56;2294656;75;49577;-78
2024/04/20 10:02:52;;;;;;;0.78;0.62;;;;;;;;;;2334397;75;51572;-78
2024/04/20 10:05:54;;;;;;;0.85;0.80;;;;;;;;;;2339919;73;51304;-77
2024/04/20 10:08:56;;;;;;;0.55;0.55;;;;;;;20.16;45.81;100829.25;2309893;75;52566;-77
2024/04/20 10:11:59;;;;;;;0.55;0.55;;;;;;;20.16;45.79;100846.72;2338309;75;51557;-78
2024/04/20 10:15:01;;;;;;;0.57;0.57;;;;;;;20.18;45.77;100840.65;2342845;75;51495;-78
2024/04/20 10:18:03;;;;;;;0.85;0.78;;;;;;;20.19;45.72;100846.84;2301193;75;49535;-78
2024/04/20 10:21:05;;;;;;;0.80;0.80;;;;;;;20.20;45.64;100844.50;2312992;75;51568;-77
2024/04/20 10:24:10;;;;;;;0.65;0.65;;;;;;;20.19;45.62;100852.22;2322378;75;51581;-77
2024/04/20 10:27:12;;;;;;;0.75;0.70;;;;;;;20.18;45.66;100855.42;2315873;75;51464;-78
2024/04/20 10:30:22;;;;;;;1.05;0.70;;;;;;;20.21;45.58;100856.39;2320825;75;51709;-77
2024/04/20 10:33:31;;;;;;;1.00;0.90;;;;;;;20.20;45.59;100861.97;2296075;75;52560;-78
2024/04/20 10:36:33;;;;;;;1.17;0.70;;;;;;;20.21;45.57;100868.99;2330468;75;22869;-77
2024/04/20 10:39:36;;;;;;;0.82;0.70;;;;;;;20.21;45.63;100881.91;2342775;75;50719;-77
2024/04/20 10:42:38;;;;;;;0.60;0.60;;;;;;;20.21;45.56;100883.25;2292256;75;50139;-77
2024/04/20 10:45:41;;;;;;;0.60;0.60;;;;;;;20.19;45.58;100892.04;2329103;75;50259;-77
2024/04/20 10:48:43;;;;;;;0.50;0.50;;;;;;;20.20;45.58;100901.75;2333373;75;50661;-78
2024/04/20 10:51:55;;;;;;;0.68;0.68;;;;;;;20.21;45.60;100907.44;2319000;75;49702;-78
2024/04/20 10:55:02;;;;;;;0.93;0.60;;;;;;;20.22;45.62;100908.30;2327897;75;49872;-78
2024/04/20 10:58:08;;;;;;;0.53;0.53;;;;;;;20.21;45.65;100911.98;2299142;75;49158;-78
2024/04/20 11:01:08;;;;;;;0.68;0.65;;;;;;;20.21;45.63;100922.22;2312480;75;22393;-78
2024/04/20 11:04:10;;;;;;;0.95;0.85;;;;;;;20.21;45.61;100922.73;2323361;75;50753;-78
2024/04/20 11:07:14;;;;;;;0.60;0.60;;;;;;;20.21;45.64;100923.55;2304729;75;49613;-78
2024/04/20 11:10:17;;;;;;;0.50;0.50;;;;;;;20.19;45.62;100927.45;2317631;75;50136;-77
2024/04/20 11:13:19;;;;;;;0.85;0.70;;;;;;;20.19;45.59;100925.63;2332869;75;51562;-77
2024/04/20 11:16:21;;;;;;;1.70;0.60;;;;;;;20.21;45.56;100922.73;2342624;75;51970;-78
2024/04/20 11:19:23;;;;;;;0.95;0.50;;;;;;;20.21;45.56;100926.77;2334119;75;51462;-76
2024/04/20 11:22:26;;;;;;;0.70;0.62;;;;;;;20.21;45.52;100932.96;2299546;75;49545;-78
2024/04/20 11:25:29;;;;;;;0.60;0.60;;;;;;;20.19;45.57;100932.34;2318043;75;51451;-78
2024/04/20 11:28:31;;;;;;;0.90;0.62;;;;;;;20.19;45.57;100930.14;2320831;75;51493;-77
2024/04/20 11:31:33;;;;;;;1.07;0.68;;;;;;;20.19;45.59;100932.34;2300069;75;51056;-77
2024/04/20 11:34:35;;;;;;;0.82;0.70;;;;;;;20.19;45.64;100935.51;2334648;75;51422;-77
2024/04/20 11:37:38;;;;;;;0.85;0.70;;;;;;;20.19;45.62;100939.06;2332410;75;50354;-77
2024/04/20 11:40:46;;;;;;;1.05;0.80;;;;;;;20.20;45.61;100938.02;2283270;75;50751;-78
2024/04/20 11:43:48;;;;;;;0.62;0.57;;;;;;;20.22;45.56;100938.68;2330444;75;50691;-77
2024/04/20 11:46:50;;;;;;;0.80;0.70;;;;;;;20.24;45.65;100939.81;2300978;75;51396;-77
2024/04/20 11:49:53;;;;;;;1.57;0.90;;;;;;;20.23;45.61;100930.09;2338388;75;51561;-77
2024/04/20 11:56:16;;;;;;;1.05;0.80;;;;;;;20.21;45.62;100942.36;2339525;75;22490;-78
2024/04/20 11:59:18;;;;;;;0.57;0.57;;;;;;;20.25;45.66;100939.33;2351468;75;50694;-77
2024/04/20 12:02:20;;;;;;;0.60;0.60;;;;;;;20.26;45.80;100946.36;2335821;75;50738;-77
2024/04/20 12:05:22;;;;;;;0.70;0.70;;;;;;;20.27;45.83;100946.67;2332393;75;51556;-77
2024/04/20 12:08:24;;;;;;;0.90;0.78;;;;;;;20.29;45.73;100945.47;2328090;75;50727;-78
2024/04/20 12:11:27;;;;;;;0.72;0.72;;;;;;;20.30;45.68;100942.29;2301599;75;50994;-77
2024/04/20 12:14:29;;;;;;;1.27;0.72;;;;;;;20.31;45.68;100947.98;2314857;75;50754;-77
2024/04/20 12:17:34;;;;;;;1.45;0.68;;;;;;;20.32;45.61;100938.87;2337301;75;51649;-78
2024/04/20 12:20:35;;;;;;;0.70;0.70;;;;;;;20.33;45.57;100937.36;2276094;75;22360;-78
2024/04/20 12:23:37;;;;;;;1.05;0.78;;;;;;;20.36;45.49;100935.64;2311072;75;50252;-78
2024/04/20 12:26:39;;;;;;;0.75;0.75;;;;;;;20.37;45.40;100948.07;2335287;73;50659;-78
2024/04/20 12:29:42;;;;;;;1.20;0.70;;;;;;;20.41;45.37;100956.58;2335355;75;51512;-78
2024/04/20 12:32:44;;;;;;;0.78;0.62;;;;;;;20.40;45.35;100953.58;2278451;75;51421;-78
2024/04/20 12:35:47;;;;;;;0.85;0.60;;;;;;;20.37;45.58;100967.38;2333984;75;51440;-78
2024/04/20 12:38:49;;;;;;;0.90;0.65;;;;;;;20.36;45.58;100957.66;2298422;75;49885;-78
2024/04/20 12:41:51;;;;;;;1.37;0.80;;;;;;;20.35;45.60;100961.38;2337466;75;53097;-79
2024/04/20 12:45:00;;;;;;;0.80;0.78;;;;;;;20.33;45.57;100954.00;2327744;75;51498;-78
2024/04/20 12:48:02;;;;;;;0.72;0.70;;;;;;;20.35;45.48;100964.89;2319567;75;50387;-77
2024/04/20 12:51:05;;;;;;;0.95;0.60;;;;;;;20.37;45.45;100960.17;2313344;75;52406;-78
2024/04/20 12:54:07;;;;;;;0.82;0.80;;;;;;;20.36;45.52;100950.94;2240696;75;52591;-77
2024/04/20 12:57:09;;;;;;;1.95;0.82;;;;;;;20.36;45.50;100959.00;2335174;73;51452;-78
2024/04/20 13:00:13;;;;;;;1.75;0.70;;;;;;;20.38;45.35;100953.76;2338022;75;52562;-76
2024/04/20 13:03:15;;;;;;;0.82;0.72;;;;;;;20.38;45.42;100948.38;2266318;75;51065;-78
2024/04/20 13:06:17;;;;;;;1.00;0.75;;;;;;;20.37;45.54;100953.94;2335196;75;51512;-77
2024/04/20 13:09:19;;;;;;;0.75;0.75;;;;;;;20.37;45.48;100963.34;2321850;75;52271;-78
2024/04/20 13:12:22;;;;;;;0.65;0.60;;;;;;;20.36;45.47;100967.06;2331729;75;50055;-77
2024/04/20 13:15:24;;;;;;;0.72;0.70;;;;;;;20.36;45.34;100962.52;2283456;73;50329;-77
2024/04/20 13:18:27;;;;;;;0.72;0.70;;;;;;;20.34;45.40;100967.75;2278700;75;51538;-78
2024/04/20 13:21:29;;;;;;;1.15;0.75;;;;;;;20.35;45.39;100961.38;2313238;75;50417;-77
2024/04/20 13:24:31;;;;;;;0.80;0.80;;;;;;;20.37;45.39;100966.03;2343140;75;50386;-77
2024/04/20 13:27:33;;;;;;;0.60;0.60;;;;;;;20.39;45.39;100965.34;2288538;75;51801;-77
2024/04/20 13:30:36;;;;;;;0.70;0.70;;;;;;;20.40;45.39;100963.82;2342135;75;51434;-77
2024/04/20 13:33:38;;;;;;;0.70;0.70;;;;;;;20.41;45.41;100983.46;2322848;75;50854;-77
2024/04/20 13:36:40;;;;;;;0.98;0.80;;;;;;;20.40;45.31;100989.87;2320964;75;50278;-77
2024/04/20 13:39:43;;;;;;;0.60;0.60;;;;;;;20.39;45.27;100983.63;2322679;75;50654;-78
2024/04/20 13:42:48;;;;;;;0.78;0.70;;;;;;;20.40;45.24;100983.15;2303938;75;49658;-78
2024/04/20 13:45:49;;;;;;;1.65;0.90;;;;;;;20.40;45.20;100989.87;2330760;73;23054;-78
2024/04/20 13:48:54;;;;;;;0.95;0.70;;;;;;;20.41;45.34;100980.25;2322637;75;51495;-78
2024/04/20 13:51:55;;;;;;;0.53;0.53;;;;;;;20.42;45.33;100983.77;2339171;75;22379;-77
2024/04/20 13:54:57;;;;;;;0.95;0.70;;;;;;;20.41;45.38;100983.46;2309143;75;50713;-77
2024/04/20 13:58:00;;;;;;;0.98;0.68;;;;;;;20.40;45.35;100998.76;2282183;75;51398;-78
2024/04/20 14:01:02;;;;;;;0.53;0.53;;;;;;;20.40;45.33;100993.90;2343736;75;50768;-78
2024/04/20 14:04:06;;;;;;;0.70;0.60;;;;;;;20.40;45.26;101004.65;2324566;75;50803;-78
2024/04/20 14:07:08;;;;;;;0.60;0.60;;;;;;;20.38;45.20;101002.13;2295521;75;51417;-77
2024/04/20 14:10:11;;;;;;;0.57;0.57;;;;;;;20.37;45.20;101012.58;2339363;75;52008;-78
2024/04/20 14:13:14;;;;;;;1.22;0.90;;;;;;;20.38;45.19;101002.13;2320818;75;50105;-78
2024/04/20 14:16:16;;;;;;;0.80;0.50;;;;;;;20.37;45.15;101013.06;2293628;75;50836;-78
2024/04/20 14:19:20;;;;;;;0.72;0.70;;;;;;;20.36;45.15;101011.41;2312686;75;50356;-78